createdAt,value
2023-02-05T00:03:10.446Z,1.96
2023-02-05T00:08:06.706Z,2.76
2023-02-05T00:13:02.930Z,3.58
2023-02-05T00:17:59.183Z,4.18
2023-02-05T00:22:55.471Z,3.49
2023-02-05T00:27:51.750Z,3.64
2023-02-05T00:32:47.979Z,2.65
2023-02-05T00:37:44.228Z,2.73
2023-02-05T00:42:40.502Z,3.41
2023-02-05T00:47:36.749Z,4.07
2023-02-05T00:52:33.080Z,4.5
2023-02-05T00:57:29.275Z,4.09
2023-02-05T01:02:25.624Z,3.86
2023-02-05T01:07:21.833Z,3.99
2023-02-05T01:12:18.075Z,3.33
2023-02-05T01:17:14.305Z,1.94
2023-02-05T01:22:10.568Z,2.8
2023-02-05T01:27:06.856Z,2.16
2023-02-05T01:32:03.096Z,2.6
2023-02-05T01:36:59.321Z,2.64
2023-02-05T01:41:55.628Z,3.56
2023-02-05T01:46:55.840Z,3.51
2023-02-05T01:51:54.129Z,1.45
2023-02-05T01:56:53.376Z,2.05
2023-02-05T02:01:49.658Z,1.24
2023-02-05T02:06:45.912Z,2.86
2023-02-05T02:11:44.103Z,3.34
2023-02-05T02:16:40.439Z,2.69
2023-02-05T02:21:49.597Z,2.57
2023-02-05T02:26:57.832Z,2.46
2023-02-05T02:32:01.075Z,1.25
2023-02-05T02:37:06.298Z,0.98
2023-02-05T02:42:05.564Z,2.39
2023-02-05T02:47:05.813Z,1.61
2023-02-05T02:52:06.060Z,2.6
2023-02-05T02:57:06.351Z,2.33
2023-02-05T03:02:05.620Z,2.48
2023-02-05T03:07:04.856Z,2.47
2023-02-05T03:12:01.139Z,3.06
2023-02-05T03:16:58.389Z,2.64
2023-02-05T03:21:59.613Z,2.65
2023-02-05T03:26:56.836Z,2.01
2023-02-05T03:31:59.109Z,2.36
2023-02-05T03:37:00.392Z,1.42
2023-02-05T03:42:06.561Z,1.51
2023-02-05T03:47:09.819Z,0.81
2023-02-05T03:52:12.079Z,1.85
2023-02-05T03:57:15.323Z,1.66
2023-02-05T04:02:12.725Z,1.46
2023-02-05T04:07:08.833Z,0.54
2023-02-05T04:12:05.055Z,1.01
2023-02-05T04:17:01.302Z,1.11
2023-02-05T04:21:57.594Z,1.54
2023-02-05T04:26:53.866Z,1.27
2023-02-05T04:31:50.161Z,1.4
2023-02-05T04:36:46.380Z,1.48
2023-02-05T04:41:42.634Z,2.14
2023-02-05T04:46:38.933Z,1.38
2023-02-05T04:51:37.147Z,2.27
2023-02-05T04:56:38.369Z,2.8
2023-02-05T05:01:34.665Z,1.98
2023-02-05T05:06:34.892Z,2.99
2023-02-05T05:11:31.171Z,1.96
2023-02-05T05:16:27.443Z,2.49
2023-02-05T05:21:23.709Z,2.17
2023-02-05T05:26:19.931Z,2.52
2023-02-05T05:31:17.297Z,1.78
2023-02-05T05:36:14.461Z,2.26
2023-02-05T05:41:15.704Z,2.28
2023-02-05T05:46:12.097Z,2.51
2023-02-05T05:51:08.219Z,2.79
2023-02-05T05:56:05.498Z,2.07
2023-02-05T06:01:01.757Z,2.19
2023-02-05T06:05:59.992Z,2.11
2023-02-05T06:10:56.235Z,2.15
2023-02-05T06:15:52.528Z,2.63
2023-02-05T06:20:48.802Z,2.42
2023-02-05T06:25:45.056Z,2.46
2023-02-05T06:30:42.338Z,2.24
2023-02-05T06:35:38.568Z,2.51
2023-02-05T06:40:34.788Z,2.52
2023-02-05T06:45:31.093Z,1.61
2023-02-05T06:50:27.314Z,0.76
2023-02-05T06:55:23.642Z,1.33
2023-02-05T07:00:19.848Z,1.77
2023-02-05T07:05:16.136Z,1.64
2023-02-05T07:10:12.371Z,2.05
2023-02-05T07:15:08.592Z,1.63
2023-02-05T07:20:04.903Z,1.74
2023-02-05T07:25:03.934Z,1.98
2023-02-05T07:30:00.411Z,1.59
2023-02-05T07:34:56.673Z,2.09
2023-02-05T07:39:52.890Z,1.95
2023-02-05T07:44:49.163Z,2.27
2023-02-05T07:49:45.395Z,2.09
2023-02-05T07:54:41.696Z,2.26
2023-02-05T07:59:37.953Z,2.82
2023-02-05T08:04:34.289Z,2.58
2023-02-05T08:09:30.469Z,2.67
2023-02-05T08:14:26.722Z,2.92
2023-02-05T08:19:22.958Z,2.82
2023-02-05T08:24:19.219Z,2.65
2023-02-05T08:29:14.485Z,2.97
2023-02-05T08:34:10.793Z,2.43
2023-02-05T08:39:07.028Z,2.97
2023-02-05T08:44:02.265Z,2.62
2023-02-05T08:48:58.520Z,2.77
2023-02-05T08:53:54.823Z,3.21
2023-02-05T08:58:51.060Z,2.96
2023-02-05T09:03:47.311Z,2.6
2023-02-05T09:08:43.598Z,3.16
2023-02-05T09:13:39.810Z,3.46
2023-02-05T09:18:36.102Z,3.6
2023-02-05T09:23:32.333Z,3.07
2023-02-05T09:28:28.597Z,3.07
2023-02-05T09:33:24.886Z,2.79
2023-02-05T09:38:21.130Z,2.88
2023-02-05T09:43:25.372Z,3.11
2023-02-05T09:48:37.601Z,3.61
2023-02-05T09:53:38.813Z,3.46
2023-02-05T09:58:40.062Z,3.84
2023-02-05T10:03:43.368Z,3.87
2023-02-05T10:08:49.588Z,4.03
2023-02-05T10:14:03.797Z,4.08
2023-02-05T10:19:11.994Z,4.2
2023-02-05T10:24:24.248Z,4
2023-02-05T10:29:32.449Z,4.55
2023-02-05T10:34:40.661Z,4.73
2023-02-05T10:39:42.977Z,4.15
2023-02-05T10:44:44.200Z,4.95
2023-02-05T10:49:47.400Z,5.43
2023-02-05T10:54:48.694Z,5.38
2023-02-05T10:59:55.920Z,4.98
2023-02-05T11:04:59.181Z,5.2
2023-02-05T11:10:07.375Z,5.14
2023-02-05T11:15:04.633Z,5.15
2023-02-05T11:20:02.928Z,4.42
2023-02-05T11:25:06.121Z,4.94
2023-02-05T11:35:09.632Z,5.85
2023-02-05T11:40:12.861Z,6
2023-02-05T11:45:16.102Z,7.12
2023-02-05T11:50:18.851Z,7.05
2023-02-05T11:55:22.612Z,7.56
2023-02-05T12:00:24.875Z,4.46
2023-02-05T12:05:24.144Z,5.79
2023-02-05T12:10:25.349Z,4.12
2023-02-05T12:15:28.613Z,6.64
2023-02-05T12:20:29.850Z,4.33
2023-02-05T12:25:40.786Z,3.42
2023-02-05T12:30:50.321Z,3.93
2023-02-05T12:35:58.516Z,3.47
2023-02-05T12:41:08.715Z,3.68
2023-02-05T12:46:19.039Z,3.37
2023-02-05T12:51:27.177Z,4.29
2023-02-05T12:56:36.426Z,4.29
2023-02-05T13:01:39.629Z,3.71
2023-02-05T13:06:41.941Z,3.48
2023-02-05T13:11:44.098Z,4.21
2023-02-05T13:16:44.471Z,3.71
2023-02-05T13:26:49.865Z,3.03
2023-02-05T13:31:50.096Z,6.06
2023-02-05T13:37:01.361Z,4.78
2023-02-05T13:42:14.541Z,3.82
2023-02-05T13:47:27.806Z,3.47
2023-02-05T13:52:47.011Z,3.04
2023-02-05T13:57:57.213Z,3.33
2023-02-05T14:03:01.479Z,3.24
2023-02-05T14:07:58.721Z,3.42
2023-02-05T14:13:01.949Z,3.19
2023-02-05T14:18:09.172Z,2.89
2023-02-05T14:23:12.430Z,3.29
2023-02-05T14:28:24.660Z,2.96
2023-02-05T14:33:36.879Z,3.28
2023-02-05T14:38:33.271Z,3.26
2023-02-05T14:43:33.371Z,4.03
2023-02-05T14:48:30.649Z,8.58
2023-02-05T14:53:30.840Z,10.65
2023-02-05T14:58:31.150Z,8.22
2023-02-05T15:03:39.378Z,7.62
2023-02-05T15:08:48.579Z,10.4
2023-02-05T15:13:50.810Z,7.09
2023-02-05T15:18:53.075Z,4.53
2023-02-05T15:23:56.336Z,5.18
2023-02-05T15:28:58.563Z,3.78
2023-02-05T15:34:04.795Z,3.31
2023-02-05T15:39:13.039Z,3.03
2023-02-05T15:44:18.296Z,3.6
2023-02-05T15:49:14.529Z,3.57
2023-02-05T15:54:17.790Z,3.64
2023-02-05T15:59:20.011Z,3.54
2023-02-05T16:04:17.307Z,3.39
2023-02-05T16:09:18.532Z,3.6
2023-02-05T16:14:15.746Z,3.25
2023-02-05T16:19:16.037Z,3.2
2023-02-05T16:29:31.584Z,2.49
2023-02-05T16:34:30.702Z,2.07
2023-02-05T16:39:29.005Z,2.2
2023-02-05T16:44:27.255Z,2.67
2023-02-05T16:49:30.512Z,2.52
2023-02-05T16:54:28.727Z,2.66
2023-02-05T16:59:29.948Z,2.69
2023-02-05T17:04:29.227Z,2.36
2023-02-05T17:09:29.503Z,2.24
2023-02-05T17:14:30.699Z,2.59
2023-02-05T17:19:28.962Z,2.63
2023-02-05T17:24:26.241Z,1.75
2023-02-05T17:29:23.527Z,1.57
2023-02-05T17:34:21.742Z,2.53
2023-02-05T17:39:18.002Z,2.49
2023-02-05T17:44:15.235Z,2.04
2023-02-05T17:49:11.590Z,2.06
2023-02-05T17:54:11.793Z,2.63
2023-02-05T17:59:10.077Z,1.75
2023-02-05T18:04:06.326Z,1.95
2023-02-05T18:09:02.535Z,1.83
2023-02-05T18:13:58.839Z,2.04
2023-02-05T18:18:55.090Z,1.43
2023-02-05T18:23:56.058Z,1.58
2023-02-05T18:28:52.574Z,1.76
2023-02-05T18:33:47.831Z,1.65
2023-02-05T18:38:44.074Z,1.61
2023-02-05T18:43:41.355Z,1.47
2023-02-05T18:48:38.626Z,1.06
2023-02-05T18:53:34.873Z,1.22
2023-02-05T18:58:31.133Z,2.1
2023-02-05T19:03:27.462Z,1.53
2023-02-05T19:08:23.659Z,0.51
2023-02-05T19:13:19.928Z,1.3
2023-02-05T19:18:16.200Z,1.56
2023-02-05T19:23:12.396Z,1.54
2023-02-05T19:28:08.809Z,1.54
2023-02-05T19:33:05.970Z,1.18
2023-02-05T19:38:01.215Z,1.29
2023-02-05T19:42:57.440Z,1.58
2023-02-05T19:47:53.744Z,1.16
2023-02-05T19:52:51.956Z,1.42
2023-02-05T19:57:48.238Z,1.44
2023-02-05T20:02:44.521Z,2.32
2023-02-05T20:07:40.729Z,1.93
2023-02-05T20:12:36.034Z,2.01
2023-02-05T20:17:32.277Z,1.48
2023-02-05T20:22:27.521Z,1.95
2023-02-05T20:27:24.764Z,1.53
2023-02-05T20:32:22.039Z,1.4
2023-02-05T20:37:18.321Z,1.33
2023-02-05T20:42:14.579Z,0.63
2023-02-05T20:47:11.840Z,1.45
2023-02-05T20:52:09.064Z,1.71
2023-02-05T20:57:05.349Z,0.98
2023-02-05T21:02:02.715Z,1.69
2023-02-05T21:06:59.873Z,1.1
2023-02-05T21:11:57.108Z,0.64
2023-02-05T21:16:54.363Z,1.51
2023-02-05T21:21:51.622Z,0.94
2023-02-05T21:26:48.896Z,0.64
2023-02-05T21:31:45.184Z,0.21
2023-02-05T21:36:42.396Z,1.29
2023-02-05T21:41:39.648Z,0.71
2023-02-05T21:46:36.946Z,0.58
2023-02-05T21:51:37.179Z,1.44
2023-02-05T21:56:34.472Z,1.17
2023-02-05T22:01:41.689Z,0.79
2023-02-05T22:06:37.890Z,0.69
2023-02-05T22:11:34.151Z,0.64
2023-02-05T22:16:34.558Z,0.47
2023-02-05T22:21:36.640Z,1.09
2023-02-05T22:26:33.897Z,0.91
2023-02-05T22:31:30.235Z,0.94
2023-02-05T22:36:27.452Z,0.82
2023-02-05T22:41:24.690Z,0.78
2023-02-05T22:46:21.944Z,1.02
2023-02-05T22:51:19.217Z,0.93
2023-02-05T22:56:16.473Z,1.62
2023-02-05T23:01:13.761Z,0.78
2023-02-05T23:06:10.957Z,1.03
2023-02-05T23:11:10.239Z,0.55
2023-02-05T23:16:07.509Z,0.59
2023-02-05T23:21:06.754Z,0.51
2023-02-05T23:26:05.059Z,0.7
2023-02-05T23:31:00.328Z,0.51
2023-02-05T23:35:57.526Z,0.89
2023-02-05T23:40:54.766Z,1.16
2023-02-05T23:45:52.044Z,1.24
2023-02-05T23:50:48.262Z,0.64
2023-02-05T23:55:44.538Z,0.78
